Time;durP1;ratioP1;P1;durP2;ratioP2;P2;SDS_P1;SDS_P2;PMS_P1;PMS_P2;Temp;Humidity;BMP_temperature;BMP_pressure;BME280_temperature;BME280_humidity;BME280_pressure;Samples;Min_cycle;Max_cycle;Signal;HPM_P1;HPM_P2
2023/12/06 00:01:47;;;;;;;0.20;0.20;;;;;;;5.08;95.10;94265.41;5043053;28;20200;-76
2023/12/06 00:04:14;;;;;;;0.22;0.22;;;;;;;5.15;94.38;94269.31;5037673;28;20200;-75
2023/12/06 00:06:41;;;;;;;0.20;0.20;;;;;;;5.00;95.13;94267.75;5041087;28;20224;-76
2023/12/06 00:09:09;;;;;;;0.20;0.20;;;;;;;5.10;95.10;94265.91;5041554;28;20575;-76
2023/12/06 00:11:36;;;;;;;0.20;0.20;;;;;;;5.02;95.12;94258.59;5041984;28;20975;-76
2023/12/06 00:14:03;;;;;;;0.63;0.50;;;;;;;4.98;95.49;94259.19;5035499;28;20215;-76
2023/12/06 00:16:29;;;;;;;0.20;0.20;;;;;;;4.91;95.59;94264.19;5036867;28;21027;-73
2023/12/06 00:18:56;;;;;;;0.20;0.20;;;;;;;4.98;95.84;94269.94;5036972;28;20546;-75
2023/12/06 00:21:23;;;;;;;0.25;0.25;;;;;;;4.98;95.82;94264.56;5039032;28;20218;-75
2023/12/06 00:23:50;;;;;;;0.68;0.68;;;;;;;5.00;95.60;94265.06;5036755;28;20258;-74
2023/12/06 00:26:18;;;;;;;2.47;0.77;;;;;;;5.03;95.85;94260.19;5036287;28;20290;-75
2023/12/06 00:28:44;;;;;;;3.33;1.77;;;;;;;4.97;95.71;94260.28;5036810;28;20651;-75
2023/12/06 00:31:11;;;;;;;2.90;1.52;;;;;;;4.98;95.78;94259.19;5039344;28;20258;-75
2023/12/06 00:33:38;;;;;;;1.10;0.82;;;;;;;5.00;96.44;94257.00;5039570;28;20216;-75
2023/12/06 00:36:05;;;;;;;1.00;0.80;;;;;;;5.23;96.22;94254.34;5043408;28;20319;-74
2023/12/06 00:38:32;;;;;;;1.65;1.00;;;;;;;5.18;96.08;94254.47;5041541;28;20204;-74
2023/12/06 00:41:00;;;;;;;1.88;1.33;;;;;;;5.06;96.53;94249.63;5039504;28;20250;-75
2023/12/06 00:43:28;;;;;;;2.58;1.58;;;;;;;5.10;96.88;94244.44;5041588;28;20215;-75
2023/12/06 00:45:55;;;;;;;1.65;1.33;;;;;;;4.90;97.18;94235.75;5035884;28;20235;-75
2023/12/06 00:48:25;;;;;;;0.20;0.20;;;;;;;5.01;97.67;94241.69;5038263;28;20231;-75
2023/12/06 00:50:51;;;;;;;0.20;0.20;;;;;;;5.00;97.48;94250.84;5038303;28;20669;-74
2023/12/06 00:53:18;;;;;;;0.30;0.30;;;;;;;4.84;97.30;94242.31;5030434;28;20243;-75
2023/12/06 00:55:45;;;;;;;0.20;0.20;;;;;;;4.85;97.26;94241.22;5026398;28;20728;-75
2023/12/06 00:58:12;;;;;;;0.20;0.20;;;;;;;4.78;97.39;94235.50;5027568;28;20281;-75
2023/12/06 01:00:41;;;;;;;0.20;0.20;;;;;;;4.88;97.20;94232.59;5025714;28;20367;-73
2023/12/06 01:03:08;;;;;;;0.20;0.20;;;;;;;5.96;100.00;94224.41;5030505;28;20583;-75
2023/12/06 01:05:35;;;;;;;0.20;0.20;;;;;;;5.36;95.81;94223.97;5028567;28;20235;-78
2023/12/06 01:08:02;;;;;;;0.20;0.20;;;;;;;5.08;95.97;94217.09;5028127;28;20211;-77
2023/12/06 01:10:29;;;;;;;0.35;0.35;;;;;;;5.04;96.22;94229.56;5026031;28;20211;-78
2023/12/06 01:12:56;;;;;;;0.20;0.20;;;;;;;4.86;96.32;94218.66;5026876;28;20204;-77
2023/12/06 01:15:23;;;;;;;0.20;0.20;;;;;;;4.85;96.38;94227.81;5029627;28;20626;-77
2023/12/06 01:17:52;;;;;;;0.20;0.20;;;;;;;4.93;96.47;94221.72;5033059;28;20326;-78
2023/12/06 01:20:18;;;;;;;0.20;0.20;;;;;;;4.98;96.15;94218.13;5031103;28;20212;-78
2023/12/06 01:22:45;;;;;;;0.30;0.30;;;;;;;4.87;96.36;94209.53;5030391;28;20254;-78
2023/12/06 01:25:12;;;;;;;0.20;0.20;;;;;;;4.96;96.08;94207.69;5032526;28;20236;-77
2023/12/06 01:27:39;;;;;;;0.40;0.40;;;;;;;4.88;96.29;94205.75;5031706;28;20211;-75
2023/12/06 01:30:07;;;;;;;1.23;0.43;;;;;;;4.98;96.25;94200.16;5032964;28;20258;-76
2023/12/06 01:32:34;;;;;;;0.20;0.20;;;;;;;4.86;96.33;94185.66;5031830;28;20211;-76
2023/12/06 01:35:02;;;;;;;0.20;0.20;;;;;;;5.03;95.83;94188.50;5030914;28;20192;-77
2023/12/06 01:37:29;;;;;;;0.93;0.93;;;;;;;4.87;95.69;94188.06;5029702;28;20211;-77
2023/12/06 01:39:56;;;;;;;0.20;0.20;;;;;;;4.94;96.10;94193.78;5032197;28;20283;-75
2023/12/06 01:42:23;;;;;;;0.30;0.30;;;;;;;4.93;96.12;94191.41;5029049;28;20208;-76
2023/12/06 01:44:49;;;;;;;0.20;0.20;;;;;;;4.93;95.78;94181.47;5030338;28;20262;-77
2023/12/06 01:47:19;;;;;;;0.20;0.20;;;;;;;5.07;95.45;94183.31;5032190;28;20228;-78
2023/12/06 01:49:47;;;;;;;0.30;0.30;;;;;;;5.04;95.65;94179.38;5029552;28;20262;-77
2023/12/06 01:52:16;;;;;;;0.20;0.20;;;;;;;5.04;95.42;94175.88;5031489;28;20667;-76
2023/12/06 01:54:43;;;;;;;0.20;0.20;;;;;;;5.06;95.13;94171.00;5030625;28;20568;-78
2023/12/06 01:57:10;;;;;;;0.28;0.28;;;;;;;4.97;95.47;94166.34;5029860;28;20247;-77
2023/12/06 01:59:39;;;;;;;0.30;0.30;;;;;;;4.81;96.38;94157.06;5030235;28;20212;-78
2023/12/06 02:02:06;;;;;;;0.20;0.20;;;;;;;4.94;96.05;94156.22;5028892;28;20213;-77
2023/12/06 02:04:34;;;;;;;0.20;0.20;;;;;;;4.97;95.97;94149.44;5030984;28;20242;-76
2023/12/06 02:07:01;;;;;;;0.20;0.20;;;;;;;4.92;96.31;94158.41;5029984;28;20224;-76
2023/12/06 02:09:29;;;;;;;0.30;0.30;;;;;;;4.96;96.03;94154.03;5030778;28;20216;-76
2023/12/06 02:11:56;;;;;;;0.20;0.20;;;;;;;4.86;96.12;94154.25;5029627;28;20208;-77
2023/12/06 02:14:23;;;;;;;0.20;0.20;;;;;;;4.98;95.76;94157.22;5030939;28;20200;-76
2023/12/06 02:16:50;;;;;;;0.28;0.28;;;;;;;4.83;96.18;94144.13;5031216;28;20215;-76
2023/12/06 02:19:24;;;;;;;0.30;0.30;;;;;;;4.95;95.87;94146.28;5031846;28;20743;-76
2023/12/06 02:21:51;;;;;;;0.22;0.22;;;;;;;4.91;96.01;94146.13;5024100;28;20208;-74
2023/12/06 02:24:19;;;;;;;0.20;0.20;;;;;;;4.98;96.25;94141.09;5027007;28;20619;-75
2023/12/06 02:26:52;;;;;;;0.20;0.20;;;;;;;5.09;96.03;94156.97;5026978;28;20276;-74
2023/12/06 02:29:19;;;;;;;0.20;0.20;;;;;;;5.08;96.27;94150.00;5030509;28;20196;-75
2023/12/06 02:31:46;;;;;;;0.28;0.28;;;;;;;4.97;96.63;94155.63;5023775;28;20639;-77
2023/12/06 02:34:16;;;;;;;0.20;0.20;;;;;;;5.00;96.80;94155.00;5027908;28;20209;-75
2023/12/06 02:36:47;;;;;;;0.20;0.20;;;;;;;4.99;96.68;94150.75;5030880;28;20196;-76
2023/12/06 02:39:14;;;;;;;0.20;0.20;;;;;;;4.90;96.78;94149.88;5028618;28;20215;-79
2023/12/06 02:41:41;;;;;;;0.20;0.20;;;;;;;5.07;96.96;94151.09;5028917;28;20211;-78
2023/12/06 02:44:09;;;;;;;0.20;0.20;;;;;;;5.05;96.45;94142.59;5031014;28;20200;-78
2023/12/06 02:46:37;;;;;;;0.70;0.70;;;;;;;4.99;96.07;94142.69;5029325;28;20247;-78
2023/12/06 02:49:04;;;;;;;0.28;0.28;;;;;;;5.04;95.87;94143.69;5027295;28;20718;-78
2023/12/06 02:51:31;;;;;;;0.20;0.20;;;;;;;5.06;95.83;94122.69;5030982;28;20205;-78
2023/12/06 02:53:58;;;;;;;0.32;0.32;;;;;;;4.98;95.90;94122.31;5030523;28;20201;-78
2023/12/06 02:56:25;;;;;;;0.20;0.20;;;;;;;5.04;95.61;94122.22;5030876;28;20288;-79
2023/12/06 02:58:52;;;;;;;0.20;0.20;;;;;;;4.98;95.82;94125.00;5028333;28;20211;-78
2023/12/06 03:01:20;;;;;;;0.30;0.30;;;;;;;5.06;95.58;94120.78;5029885;28;20607;-78
2023/12/06 03:03:47;;;;;;;0.40;0.40;;;;;;;5.13;95.09;94123.06;5028709;28;20637;-76
2023/12/06 03:06:14;;;;;;;0.30;0.30;;;;;;;5.05;95.34;94113.06;5030582;28;20689;-77
2023/12/06 03:08:41;;;;;;;0.20;0.20;;;;;;;4.99;95.58;94118.53;5028838;28;20589;-77
2023/12/06 03:11:07;;;;;;;0.20;0.20;;;;;;;5.06;95.77;94109.28;5030012;28;20208;-77
2023/12/06 03:13:34;;;;;;;0.20;0.20;;;;;;;4.93;96.18;94121.63;5030616;28;20208;-79
2023/12/06 03:16:01;;;;;;;0.30;0.30;;;;;;;5.02;96.11;94119.03;5031455;28;20201;-77
2023/12/06 03:18:30;;;;;;;0.20;0.20;;;;;;;5.06;96.25;94114.66;5029900;28;20232;-79
2023/12/06 03:20:57;;;;;;;0.20;0.20;;;;;;;5.02;96.25;94108.28;5030790;28;20643;-77
2023/12/06 03:23:23;;;;;;;0.63;0.63;;;;;;;5.05;96.26;94113.84;5030068;28;20553;-78
2023/12/06 03:25:51;;;;;;;0.20;0.20;;;;;;;4.93;96.65;94117.06;5030868;28;20228;-79
2023/12/06 03:28:18;;;;;;;0.20;0.20;;;;;;;5.13;96.45;94105.06;5030402;28;20307;-78
2023/12/06 03:30:44;;;;;;;0.20;0.20;;;;;;;5.04;96.48;94101.53;5025907;28;20196;-77
2023/12/06 03:33:11;;;;;;;0.22;0.22;;;;;;;4.94;97.07;94099.88;5033231;28;20204;-74
2023/12/06 03:35:39;;;;;;;0.20;0.20;;;;;;;5.10;96.92;94094.13;5029134;28;20200;-75
2023/12/06 03:38:06;;;;;;;0.20;0.20;;;;;;;4.98;96.95;94100.84;5026436;28;20216;-73
2023/12/06 03:40:33;;;;;;;0.20;0.20;;;;;;;5.07;96.78;94100.09;5029762;28;20208;-75
2023/12/06 03:43:00;;;;;;;0.52;0.52;;;;;;;5.16;96.53;94098.28;5030130;28;20270;-73
2023/12/06 03:45:26;;;;;;;0.47;0.47;;;;;;;5.12;96.60;94108.03;5029433;28;20258;-73
2023/12/06 03:47:53;;;;;;;0.20;0.20;;;;;;;5.08;96.79;94101.69;5026909;28;20224;-75
2023/12/06 03:50:20;;;;;;;0.20;0.20;;;;;;;5.10;96.58;94100.28;5028154;28;20569;-74
2023/12/06 03:52:48;;;;;;;1.65;0.73;;;;;;;5.08;97.14;94101.69;5026833;28;20267;-74
2023/12/06 03:55:15;;;;;;;0.20;0.20;;;;;;;5.09;96.87;94103.28;5029904;28;20196;-72
2023/12/06 03:57:42;;;;;;;0.20;0.20;;;;;;;5.08;96.94;94107.06;5029752;28;20200;-72
2023/12/06 04:00:10;;;;;;;0.20;0.20;;;;;;;5.20;96.72;94097.34;5028998;28;20266;-75
2023/12/06 04:02:37;;;;;;;0.20;0.20;;;;;;;5.17;96.36;94092.63;5028152;28;20240;-72
2023/12/06 04:05:04;;;;;;;0.20;0.20;;;;;;;5.27;95.99;94089.66;5029883;28;20574;-73
2023/12/06 04:07:31;;;;;;;0.20;0.20;;;;;;;5.16;96.14;94084.88;5026147;28;20685;-73
2023/12/06 04:09:59;;;;;;;0.20;0.20;;;;;;;5.20;96.34;94088.50;5029209;28;20196;-72
2023/12/06 04:12:26;;;;;;;0.20;0.20;;;;;;;5.72;100.00;94082.31;5028681;28;20216;-76
2023/12/06 04:14:53;;;;;;;0.35;0.35;;;;;;;5.71;96.29;94085.31;5027612;28;20208;-73
2023/12/06 04:17:20;;;;;;;0.30;0.30;;;;;;;5.32;95.45;94075.31;5028075;28;20210;-73
2023/12/06 04:19:47;;;;;;;0.25;0.25;;;;;;;5.23;96.13;94093.25;5026004;28;20200;-74
2023/12/06 04:22:14;;;;;;;0.20;0.20;;;;;;;5.26;96.29;94095.34;5021926;28;20323;-76
2023/12/06 04:24:40;;;;;;;0.20;0.20;;;;;;;5.42;96.20;94085.81;5024756;28;20607;-74
2023/12/06 04:27:09;;;;;;;0.40;0.40;;;;;;;5.39;96.48;94094.47;5027965;28;20290;-75
2023/12/06 04:29:35;;;;;;;0.20;0.20;;;;;;;5.32;97.04;94086.06;5025910;28;20204;-74
2023/12/06 04:32:02;;;;;;;0.90;0.60;;;;;;;5.27;97.75;94096.94;5028808;28;20213;-73
2023/12/06 04:34:30;;;;;;;0.20;0.20;;;;;;;5.31;98.21;94096.00;5028391;28;20204;-76
2023/12/06 04:36:56;;;;;;;0.20;0.20;;;;;;;5.28;98.08;94087.78;5027671;28;20599;-73
2023/12/06 04:39:23;;;;;;;0.20;0.20;;;;;;;5.43;98.22;94092.75;5029217;28;20262;-73
2023/12/06 04:41:50;;;;;;;0.20;0.20;;;;;;;5.42;98.48;94091.16;5028212;28;20204;-73
2023/12/06 04:44:18;;;;;;;0.20;0.20;;;;;;;5.42;98.97;94090.38;5025481;28;20263;-72
2023/12/06 04:46:45;;;;;;;0.20;0.20;;;;;;;5.36;99.21;94095.06;5026462;28;20719;-73
2023/12/06 04:49:12;;;;;;;0.52;0.50;;;;;;;5.30;99.20;94088.25;5030853;28;20207;-73
2023/12/06 04:51:39;;;;;;;0.20;0.20;;;;;;;5.32;99.40;94096.81;5030642;28;20212;-74
2023/12/06 04:54:06;;;;;;;0.20;0.20;;;;;;;5.38;99.34;94090.19;5033428;28;20200;-73
2023/12/06 04:56:33;;;;;;;0.45;0.45;;;;;;;5.39;99.29;94099.03;5035426;28;20210;-73
2023/12/06 04:59:00;;;;;;;0.20;0.20;;;;;;;5.38;99.98;94086.72;5036881;28;20714;-73
2023/12/06 05:01:28;;;;;;;0.30;0.30;;;;;;;5.47;99.82;94092.91;5032746;28;20212;-73
2023/12/06 05:03:55;;;;;;;0.20;0.20;;;;;;;5.40;100.00;94079.16;5033215;28;20228;-73
2023/12/06 05:06:22;;;;;;;0.32;0.32;;;;;;;5.30;100.00;94088.25;5033935;28;20614;-73
2023/12/06 05:08:49;;;;;;;0.20;0.20;;;;;;;5.28;100.00;94091.25;5033516;28;20278;-71
2023/12/06 05:11:15;;;;;;;0.20;0.20;;;;;;;5.29;100.00;94094.72;5033397;28;20216;-76
2023/12/06 05:13:42;;;;;;;0.20;0.20;;;;;;;5.31;100.00;94092.53;5016685;28;20546;-72
2023/12/06 05:16:09;;;;;;;0.20;0.20;;;;;;;5.33;100.00;94087.63;5013956;28;20209;-71
2023/12/06 05:18:37;;;;;;;0.50;0.50;;;;;;;5.32;100.00;94096.81;5013273;28;20220;-74
2023/12/06 05:21:05;;;;;;;0.20;0.20;;;;;;;5.29;100.00;94094.72;5012715;28;20589;-73
2023/12/06 05:23:31;;;;;;;0.20;0.20;;;;;;;5.29;100.00;94092.84;5012025;28;20213;-71
2023/12/06 05:25:58;;;;;;;0.20;0.20;;;;;;;5.25;100.00;94089.19;5012869;28;20216;-73
2023/12/06 05:28:25;;;;;;;0.22;0.22;;;;;;;5.30;100.00;94082.91;5026727;28;20685;-71
2023/12/06 05:30:52;;;;;;;0.20;0.20;;;;;;;5.28;100.00;94090.47;5026820;28;20208;-74
2023/12/06 05:33:19;;;;;;;0.30;0.30;;;;;;;5.25;100.00;94096.44;5034038;28;20572;-71
2023/12/06 05:35:47;;;;;;;0.30;0.30;;;;;;;5.29;100.00;94078.63;5032642;28;21051;-73
2023/12/06 05:38:14;;;;;;;0.20;0.20;;;;;;;5.40;100.00;94082.63;5033284;28;20212;-71
2023/12/06 05:40:41;;;;;;;0.20;0.20;;;;;;;5.32;100.00;94086.06;5021812;28;20653;-74
2023/12/06 05:43:10;;;;;;;0.20;0.20;;;;;;;5.43;100.00;94084.69;5013474;28;20575;-74
2023/12/06 05:45:37;;;;;;;0.20;0.20;;;;;;;5.35;100.00;94083.53;5013708;28;20213;-75
2023/12/06 05:48:04;;;;;;;0.10;0.10;;;;;;;5.38;100.00;94079.44;5017672;28;20255;-74
2023/12/06 05:50:31;;;;;;;0.30;0.30;;;;;;;5.34;100.00;94078.47;5021911;28;20264;-74
2023/12/06 05:52:59;;;;;;;0.20;0.20;;;;;;;5.47;100.00;94082.97;5013007;28;20236;-74
2023/12/06 05:55:26;;;;;;;0.30;0.30;;;;;;;5.37;100.00;94083.22;5019730;28;20200;-74
2023/12/06 05:57:54;;;;;;;0.30;0.30;;;;;;;5.23;100.00;94082.53;5038999;28;20209;-74
2023/12/06 06:00:20;;;;;;;0.35;0.35;;;;;;;5.23;100.00;94079.84;5038558;28;20257;-74
2023/12/06 06:02:47;;;;;;;0.20;0.20;;;;;;;5.30;100.00;94094.44;5020407;28;20580;-74
2023/12/06 06:05:16;;;;;;;0.30;0.30;;;;;;;5.31;100.00;94090.66;5040758;28;20209;-75
2023/12/06 06:07:43;;;;;;;0.20;0.20;;;;;;;5.29;100.00;94092.03;5024604;28;20549;-74
2023/12/06 06:10:11;;;;;;;0.20;0.20;;;;;;;5.27;100.00;94097.72;5039053;28;20214;-73
2023/12/06 06:12:38;;;;;;;0.20;0.20;;;;;;;5.15;100.00;94094.00;5012840;28;20545;-74
2023/12/06 06:15:08;;;;;;;0.20;0.20;;;;;;;5.18;100.00;94090.72;5012767;28;20270;-75
2023/12/06 06:17:35;;;;;;;0.20;0.20;;;;;;;5.22;100.00;94097.03;5014111;28;20646;-75
2023/12/06 06:20:02;;;;;;;0.38;0.35;;;;;;;5.18;100.00;94093.41;5039785;28;20211;-74
2023/12/06 06:22:28;;;;;;;0.30;0.30;;;;;;;5.22;100.00;94097.03;5022980;28;20271;-75
2023/12/06 06:24:55;;;;;;;0.30;0.30;;;;;;;5.17;100.00;94097.19;5039974;28;20606;-75
2023/12/06 06:27:23;;;;;;;0.20;0.20;;;;;;;5.22;100.00;94097.84;5012225;28;20565;-74
2023/12/06 06:29:50;;;;;;;0.20;0.20;;;;;;;5.28;100.00;94095.84;5011764;28;20216;-74
2023/12/06 06:32:17;;;;;;;0.50;0.50;;;;;;;5.24;100.00;94092.97;5022562;28;20216;-74
2023/12/06 06:34:43;;;;;;;0.20;0.20;;;;;;;5.28;100.00;94096.63;5029188;28;20601;-75
2023/12/06 06:37:10;;;;;;;0.20;0.20;;;;;;;5.26;100.00;94098.81;5031806;28;20669;-74
2023/12/06 06:39:37;;;;;;;0.40;0.40;;;;;;;5.25;100.00;94088.38;5031855;28;20607;-74
2023/12/06 06:42:06;;;;;;;0.45;0.45;;;;;;;5.36;100.00;94092.38;5032407;28;20643;-75
2023/12/06 06:44:34;;;;;;;2.45;1.50;;;;;;;5.44;100.00;94094.34;5031932;28;20212;-76
2023/12/06 06:47:01;;;;;;;0.75;0.68;;;;;;;5.38;100.00;94090.19;5031998;28;20298;-74
2023/12/06 06:49:28;;;;;;;0.50;0.50;;;;;;;5.36;100.00;94097.75;5032024;28;20262;-73
2023/12/06 06:51:54;;;;;;;0.20;0.20;;;;;;;5.37;100.00;94093.97;5031411;28;20605;-74
2023/12/06 06:54:21;;;;;;;0.20;0.20;;;;;;;5.42;100.00;94091.16;5031785;28;20212;-73
2023/12/06 06:56:48;;;;;;;0.20;0.20;;;;;;;5.54;100.00;94099.44;5031852;28;20213;-75
2023/12/06 06:59:15;;;;;;;0.60;0.60;;;;;;;5.64;100.00;94088.41;5013841;28;20216;-75
2023/12/06 07:01:43;;;;;;;0.55;0.55;;;;;;;5.63;100.00;94097.59;5011584;28;20245;-74
2023/12/06 07:04:10;;;;;;;0.20;0.20;;;;;;;5.57;100.00;94098.03;5011725;28;20244;-74
2023/12/06 07:06:36;;;;;;;0.20;0.20;;;;;;;5.61;100.00;94105.16;5011807;28;20573;-74
2023/12/06 07:09:04;;;;;;;0.20;0.20;;;;;;;5.65;100.00;94092.69;5011376;28;20324;-74
2023/12/06 07:11:33;;;;;;;0.20;0.20;;;;;;;5.61;100.00;94094.41;5011328;28;20220;-75
2023/12/06 07:13:59;;;;;;;0.35;0.35;;;;;;;5.64;100.00;94099.16;5011373;28;20241;-76
2023/12/06 07:16:27;;;;;;;0.20;0.20;;;;;;;5.57;100.00;94098.84;5011771;28;20216;-75
2023/12/06 07:18:56;;;;;;;1.02;0.40;;;;;;;5.72;100.00;94101.13;5012189;28;20295;-73
2023/12/06 07:21:25;;;;;;;0.52;0.52;;;;;;;5.75;100.00;94093.50;5011428;28;20275;-76
2023/12/06 07:23:52;;;;;;;0.38;0.38;;;;;;;5.69;100.00;94090.97;5011300;28;20219;-77
2023/12/06 07:26:19;;;;;;;0.20;0.20;;;;;;;5.62;100.00;94100.56;5013247;28;20224;-79
2023/12/06 07:28:45;;;;;;;1.50;0.57;;;;;;;5.65;100.00;94100.75;5018005;28;20236;-76
2023/12/06 07:31:12;;;;;;;0.35;0.35;;;;;;;5.67;100.00;94103.13;5030846;28;20204;-78
2023/12/06 07:33:40;;;;;;;0.30;0.30;;;;;;;5.72;100.00;94111.06;5018550;28;20212;-78
2023/12/06 07:36:10;;;;;;;0.20;0.20;;;;;;;5.82;100.00;94102.72;5029123;28;20300;-79
2023/12/06 07:38:37;;;;;;;0.20;0.20;;;;;;;5.78;100.00;94109.81;5030157;28;20216;-78
2023/12/06 07:41:04;;;;;;;0.20;0.20;;;;;;;5.82;100.00;94107.31;5016780;28;20209;-79
2023/12/06 07:43:31;;;;;;;0.30;0.30;;;;;;;5.75;100.00;94109.63;5010877;28;20293;-78
2023/12/06 07:45:58;;;;;;;0.30;0.30;;;;;;;5.79;100.00;94115.97;5011380;28;20283;-78
2023/12/06 07:48:25;;;;;;;0.20;0.20;;;;;;;5.81;100.00;94113.78;5010800;28;20239;-79
2023/12/06 07:50:53;;;;;;;0.30;0.30;;;;;;;5.79;100.00;94116.78;5010909;28;20267;-79
2023/12/06 07:53:23;;;;;;;4.47;0.98;;;;;;;5.79;100.00;94111.41;5010860;28;20580;-79
2023/12/06 07:55:51;;;;;;;0.20;0.20;;;;;;;5.75;100.00;94109.63;5013477;28;20205;-77
2023/12/06 07:58:19;;;;;;;0.20;0.20;;;;;;;5.69;100.00;94107.09;5021152;28;20295;-80
2023/12/06 08:00:46;;;;;;;0.77;0.77;;;;;;;5.69;100.00;94109.00;5011074;28;20604;-78
2023/12/06 08:03:12;;;;;;;0.20;0.20;;;;;;;5.66;100.00;94104.25;5010628;28;20228;-79
2023/12/06 08:05:39;;;;;;;0.20;0.20;;;;;;;5.69;100.00;94111.69;5011025;28;20217;-73
2023/12/06 08:08:06;;;;;;;0.20;0.20;;;;;;;5.65;100.00;94106.13;5010942;28;20617;-73
2023/12/06 08:10:35;;;;;;;0.30;0.30;;;;;;;5.77;100.00;94108.22;5023965;28;20240;-72
2023/12/06 08:13:01;;;;;;;0.20;0.20;;;;;;;5.71;100.00;94112.97;5010834;28;20256;-77
2023/12/06 08:15:29;;;;;;;0.20;0.20;;;;;;;5.74;100.00;94108.84;5010134;28;20213;-77
2023/12/06 08:17:56;;;;;;;0.75;0.40;;;;;;;5.78;100.00;94107.13;5010845;28;20290;-78
2023/12/06 08:20:23;;;;;;;0.32;0.32;;;;;;;5.77;100.00;94107.44;5010783;28;20209;-77
2023/12/06 08:22:50;;;;;;;0.55;0.55;;;;;;;5.67;100.00;94108.50;5009980;28;20290;-77
2023/12/06 08:25:17;;;;;;;0.20;0.20;;;;;;;5.82;100.00;94101.94;5010411;28;20636;-76
2023/12/06 08:27:45;;;;;;;0.17;0.17;;;;;;;5.80;100.00;94107.63;5010251;28;20232;-73
2023/12/06 08:30:12;;;;;;;0.28;0.28;;;;;;;5.75;100.00;94117.69;5010516;28;20221;-75
2023/12/06 08:32:39;;;;;;;0.20;0.20;;;;;;;5.76;100.00;94105.84;5010476;28;20623;-74
2023/12/06 08:35:06;;;;;;;0.20;0.20;;;;;;;5.77;100.00;94118.19;5030073;28;20212;-75
2023/12/06 08:37:33;;;;;;;0.20;0.20;;;;;;;5.68;100.00;94105.53;5030331;28;20213;-74
2023/12/06 08:40:00;;;;;;;0.70;0.70;;;;;;;5.64;100.00;94109.91;5023625;28;20211;-75
2023/12/06 08:42:26;;;;;;;0.20;0.20;;;;;;;5.75;100.00;94115.81;5010590;28;20550;-75
2023/12/06 08:44:55;;;;;;;0.30;0.30;;;;;;;5.92;100.00;94099.78;5010655;28;20275;-75
2023/12/06 08:47:22;;;;;;;0.20;0.20;;;;;;;5.83;100.00;94100.84;5010358;28;20658;-75
2023/12/06 08:49:49;;;;;;;0.50;0.50;;;;;;;5.70;100.00;94097.94;5010664;28;20259;-75
2023/12/06 08:52:16;;;;;;;0.73;0.73;;;;;;;5.77;100.00;94092.09;5010260;28;20717;-74
2023/12/06 08:54:42;;;;;;;0.20;0.20;;;;;;;5.65;100.00;94100.75;5010441;28;20217;-74
2023/12/06 08:57:09;;;;;;;0.20;0.20;;;;;;;5.75;100.00;94104.25;5010159;28;20610;-74
2023/12/06 08:59:36;;;;;;;0.20;0.20;;;;;;;5.67;100.00;94098.56;5010018;28;20244;-74
2023/12/06 09:02:04;;;;;;;0.63;0.63;;;;;;;5.79;100.00;94095.28;5010143;28;20276;-75
2023/12/06 09:04:31;;;;;;;0.22;0.22;;;;;;;5.80;100.00;94091.50;5010540;28;20607;-75
2023/12/06 09:06:58;;;;;;;0.10;0.10;;;;;;;5.80;100.00;94088.00;5010829;28;20614;-75
2023/12/06 09:09:25;;;;;;;0.20;0.20;;;;;;;5.82;100.00;94088.50;5009833;28;20224;-74
2023/12/06 09:11:52;;;;;;;0.20;0.20;;;;;;;5.86;100.00;94084.09;5010344;28;20619;-73
2023/12/06 09:14:18;;;;;;;0.60;0.60;;;;;;;5.83;100.00;94090.88;5010057;28;20642;-76
2023/12/06 09:16:47;;;;;;;0.28;0.28;;;;;;;5.92;100.00;94088.25;5010090;28;20209;-75
2023/12/06 09:19:16;;;;;;;0.22;0.22;;;;;;;5.92;100.00;94077.50;5019660;28;20239;-75
2023/12/06 09:21:47;;;;;;;0.20;0.20;;;;;;;5.90;100.00;94079.69;5029862;28;20554;-76
2023/12/06 09:24:14;;;;;;;0.20;0.20;;;;;;;5.86;100.00;94076.03;5029918;28;20220;-75
2023/12/06 09:26:42;;;;;;;1.52;0.68;;;;;;;5.79;100.00;94071.09;5025454;28;20213;-80
2023/12/06 09:29:10;;;;;;;0.32;0.32;;;;;;;5.86;100.00;94062.59;5010336;28;20244;-78
2023/12/06 09:31:38;;;;;;;0.40;0.40;;;;;;;5.78;100.00;94050.69;5010522;28;20216;-78
2023/12/06 09:34:06;;;;;;;0.20;0.20;;;;;;;5.90;100.00;94063.56;5021909;28;20634;-78
2023/12/06 09:36:35;;;;;;;0.20;0.20;;;;;;;5.94;100.00;94064.53;5033968;28;20686;-81
2023/12/06 09:39:04;;;;;;;0.50;0.38;;;;;;;5.91;100.00;94070.53;5033454;28;20204;-79
2023/12/06 09:41:33;;;;;;;0.55;0.38;;;;;;;5.99;100.00;94050.97;5014315;28;20248;-78
2023/12/06 09:44:00;;;;;;;0.32;0.32;;;;;;;5.98;100.00;94055.53;5014030;28;20636;-76
2023/12/06 09:46:28;;;;;;;0.20;0.20;;;;;;;6.11;100.00;94053.84;5014072;28;20573;-77
2023/12/06 09:48:55;;;;;;;0.20;0.20;;;;;;;6.03;100.00;94047.31;5013230;28;20233;-78
2023/12/06 09:51:23;;;;;;;0.52;0.52;;;;;;;6.04;100.00;94056.19;5020126;28;20208;-78
2023/12/06 09:53:52;;;;;;;0.40;0.40;;;;;;;6.13;100.00;94051.63;5032912;28;20736;-77
2023/12/06 09:56:19;;;;;;;0.82;0.82;;;;;;;6.25;100.00;94045.63;5033352;28;20242;-78
2023/12/06 09:58:46;;;;;;;0.30;0.30;;;;;;;6.16;100.00;94050.97;5032763;28;20283;-78
2023/12/06 10:01:13;;;;;;;0.50;0.50;;;;;;;6.22;100.00;94044.34;5033036;28;20579;-77
2023/12/06 10:03:40;;;;;;;0.52;0.52;;;;;;;6.18;100.00;94053.34;5032579;28;20212;-77
2023/12/06 10:06:07;;;;;;;0.30;0.30;;;;;;;6.27;100.00;94041.53;5032761;28;20318;-78
2023/12/06 10:08:34;;;;;;;0.20;0.20;;;;;;;6.34;100.00;94031.09;5033000;28;20650;-78
2023/12/06 10:11:07;;;;;;;0.90;0.77;;;;;;;6.21;100.00;94042.78;5032895;28;20580;-79
2023/12/06 10:13:35;;;;;;;0.30;0.30;;;;;;;6.51;100.00;94040.28;5032579;28;20722;-77
2023/12/06 10:16:03;;;;;;;0.40;0.40;;;;;;;6.38;100.00;94031.25;5032574;28;20440;-77
2023/12/06 10:18:30;;;;;;;0.30;0.30;;;;;;;6.33;100.00;94029.50;5032579;28;20208;-77
2023/12/06 10:20:57;;;;;;;0.20;0.20;;;;;;;6.30;100.00;94032.81;5032632;28;20567;-78
2023/12/06 10:23:24;;;;;;;0.43;0.43;;;;;;;6.35;100.00;94032.66;5029659;28;20227;-78
2023/12/06 10:25:51;;;;;;;0.22;0.22;;;;;;;6.39;100.00;94025.56;5013200;28;20212;-78
2023/12/06 10:28:20;;;;;;;0.20;0.20;;;;;;;6.48;100.00;94030.13;5012506;28;20233;-78
2023/12/06 10:30:47;;;;;;;0.20;0.20;;;;;;;6.40;100.00;94024.44;5012536;28;20617;-78
2023/12/06 10:33:17;;;;;;;0.20;0.20;;;;;;;6.26;100.00;94023.81;5016860;28;20226;-78
2023/12/06 10:35:44;;;;;;;0.20;0.20;;;;;;;6.40;100.00;94029.84;5032335;28;20266;-78
2023/12/06 10:38:13;;;;;;;0.20;0.20;;;;;;;6.49;100.00;94012.88;5014275;28;20224;-77
2023/12/06 10:40:42;;;;;;;0.20;0.20;;;;;;;6.59;100.00;94010.66;5019762;28;20247;-79
2023/12/06 10:43:09;;;;;;;0.20;0.20;;;;;;;6.60;100.00;94011.47;5012429;28;20255;-79
2023/12/06 10:45:39;;;;;;;0.20;0.20;;;;;;;6.50;100.00;94006.41;5011905;28;20209;-77
2023/12/06 10:48:07;;;;;;;0.20;0.20;;;;;;;6.45;100.00;94009.25;5012068;28;20223;-77
2023/12/06 10:50:35;;;;;;;0.20;0.20;;;;;;;6.52;100.00;94015.75;5012456;28;20611;-77
2023/12/06 10:53:04;;;;;;;0.20;0.20;;;;;;;6.38;100.00;94017.81;5023907;28;20263;-77
2023/12/06 10:55:31;;;;;;;0.22;0.22;;;;;;;6.34;100.00;94004.19;5011906;28;20601;-77
2023/12/06 10:58:00;;;;;;;0.45;0.43;;;;;;;6.38;100.00;93999.75;5012285;28;20795;-79
2023/12/06 11:00:28;;;;;;;2.35;0.95;;;;;;;6.36;100.00;93993.91;5012201;28;20282;-76
2023/12/06 11:02:56;;;;;;;0.50;0.50;;;;;;;6.43;100.00;93996.91;5011939;28;20212;-77
2023/12/06 11:05:25;;;;;;;0.20;0.20;;;;;;;6.39;100.00;94006.72;5011765;28;20247;-74
2023/12/06 11:08:20;;;;;;;0.10;0.10;;;;;;;6.61;100.00;94002.28;5011728;28;20622;-75
2023/12/06 11:10:58;;;;;;;0.22;0.22;;;;;;;6.48;100.00;93992.47;5011773;28;20575;-75
2023/12/06 11:13:49;;;;;;;0.30;0.30;;;;;;;6.60;100.00;93989.94;5011937;28;20201;-76
2023/12/06 11:16:27;;;;;;;0.20;0.20;;;;;;;6.48;100.00;93987.09;5011882;28;20208;-74
2023/12/06 11:18:56;;;;;;;0.20;0.20;;;;;;;6.39;100.00;93998.66;5011505;28;20252;-75
2023/12/06 11:21:24;;;;;;;0.20;0.20;;;;;;;6.50;100.00;93995.66;5011773;28;20294;-75
2023/12/06 11:23:52;;;;;;;0.20;0.20;;;;;;;6.49;100.00;93991.38;5011440;28;20213;-79
2023/12/06 11:26:19;;;;;;;0.20;0.20;;;;;;;6.49;100.00;93999.44;5011792;28;20503;-77
2023/12/06 11:28:46;;;;;;;1.25;0.40;;;;;;;6.45;100.00;94009.25;5010855;28;20228;-79
2023/12/06 11:31:15;;;;;;;0.20;0.20;;;;;;;6.42;100.00;94000.69;5011716;28;20220;-79
2023/12/06 11:33:53;;;;;;;0.20;0.20;;;;;;;6.35;100.00;93999.59;5019219;28;20208;-79
2023/12/06 11:36:24;;;;;;;0.30;0.30;;;;;;;6.58;100.00;93994.84;5031278;28;20658;-78
2023/12/06 11:38:51;;;;;;;0.50;0.50;;;;;;;6.44;100.00;93997.69;5030798;28;20617;-77